sensor_id;sensor_type;location;lat;lon;timestamp;pressure;altitude;pressure_sealevel;temperature;humidity
69772;BME280;57046;45.988;18.664;2023-04-08T00:01:38;100846.13;;;7.05;95.85
69772;BME280;57046;45.988;18.664;2023-04-08T00:04:03;100848.31;;;7.03;95.95
69772;BME280;57046;45.988;18.664;2023-04-08T00:06:29;100833.00;;;7.04;96.12
69772;BME280;57046;45.988;18.664;2023-04-08T00:08:54;100842.97;;;6.98;96.36
69772;BME280;57046;45.988;18.664;2023-04-08T00:11:19;100840.53;;;7.02;95.97
69772;BME280;57046;45.988;18.664;2023-04-08T00:13:45;100835.47;;;7.00;95.94
69772;BME280;57046;45.988;18.664;2023-04-08T00:16:10;100832.34;;;7.12;96.28
69772;BME280;57046;45.988;18.664;2023-04-08T00:18:35;100835.72;;;6.99;96.64
69772;BME280;57046;45.988;18.664;2023-04-08T00:21:01;100834.91;;;6.98;96.07
69772;BME280;57046;45.988;18.664;2023-04-08T00:23:26;100832.25;;;6.98;96.00
69772;BME280;57046;45.988;18.664;2023-04-08T00:25:51;100832.31;;;6.93;96.22
69772;BME280;57046;45.988;18.664;2023-04-08T00:28:17;100835.00;;;6.93;96.28
69772;BME280;57046;45.988;18.664;2023-04-08T00:30:42;100838.50;;;6.94;96.29
69772;BME280;57046;45.988;18.664;2023-04-08T00:33:07;100843.06;;;6.93;95.74
69772;BME280;57046;45.988;18.664;2023-04-08T00:35:32;100840.66;;;6.92;96.02
69772;BME280;57046;45.988;18.664;2023-04-08T00:37:58;100849.28;;;6.89;95.58
69772;BME280;57046;45.988;18.664;2023-04-08T00:40:23;100844.41;;;6.91;95.92
69772;BME280;57046;45.988;18.664;2023-04-08T00:42:49;100843.63;;;6.90;96.24
69772;BME280;57046;45.988;18.664;2023-04-08T00:45:14;100831.31;;;6.84;96.23
69772;BME280;57046;45.988;18.664;2023-04-08T00:47:39;100843.09;;;6.88;96.24
69772;BME280;57046;45.988;18.664;2023-04-08T00:50:07;100838.25;;;6.90;95.94
69772;BME280;57046;45.988;18.664;2023-04-08T00:52:32;100825.47;;;6.77;96.02
69772;BME280;57046;45.988;18.664;2023-04-08T00:54:58;100842.81;;;6.90;96.18
69772;BME280;57046;45.988;18.664;2023-04-08T00:57:23;100838.53;;;6.89;96.28
69772;BME280;57046;45.988;18.664;2023-04-08T00:59:49;100837.72;;;6.88;96.19
69772;BME280;57046;45.988;18.664;2023-04-08T01:07:17;100808.13;;;6.70;95.77
69772;BME280;57046;45.988;18.664;2023-04-08T01:09:47;100830.53;;;6.84;95.56
69772;BME280;57046;45.988;18.664;2023-04-08T01:12:21;100832.13;;;6.85;94.97
69772;BME280;57046;45.988;18.664;2023-04-08T01:14:51;100813.66;;;6.78;95.33
69772;BME280;57046;45.988;18.664;2023-04-08T01:17:21;100806.47;;;6.74;95.81
69772;BME280;57046;45.988;18.664;2023-04-08T01:19:47;100832.13;;;6.85;95.14
69772;BME280;57046;45.988;18.664;2023-04-08T01:25:09;100816.88;;;6.80;95.52
69772;BME280;57046;45.988;18.664;2023-04-08T01:27:37;100824.97;;;6.75;95.86
69772;BME280;57046;45.988;18.664;2023-04-08T01:30:05;100764.28;;;6.27;96.39
69772;BME280;57046;45.988;18.664;2023-04-08T01:32:33;100832.31;;;6.70;96.03
69772;BME280;57046;45.988;18.664;2023-04-08T01:34:59;100833.19;;;6.60;95.94
69772;BME280;57046;45.988;18.664;2023-04-08T01:37:27;100830.81;;;6.58;96.13
69772;BME280;57046;45.988;18.664;2023-04-08T01:39:54;100828.91;;;6.59;95.65
69772;BME280;57046;45.988;18.664;2023-04-08T01:42:21;100851.44;;;6.63;95.64
69772;BME280;57046;45.988;18.664;2023-04-08T01:44:49;100843.41;;;6.58;95.50
69772;BME280;57046;45.988;18.664;2023-04-08T01:47:16;100840.97;;;6.61;95.50
69772;BME280;57046;45.988;18.664;2023-04-08T01:49:42;100831.88;;;6.57;95.08
69772;BME280;57046;45.988;18.664;2023-04-08T01:52:08;100841.25;;;6.60;95.56
69772;BME280;57046;45.988;18.664;2023-04-08T01:54:34;100841.53;;;6.58;95.59
69772;BME280;57046;45.988;18.664;2023-04-08T01:57:01;100834.19;;;6.40;95.85
69772;BME280;57046;45.988;18.664;2023-04-08T01:59:30;100845.59;;;6.56;96.07
69772;BME280;57046;45.988;18.664;2023-04-08T02:01:59;100848.56;;;6.54;96.27
69772;BME280;57046;45.988;18.664;2023-04-08T02:04:26;100851.53;;;6.53;96.07
69772;BME280;57046;45.988;18.664;2023-04-08T02:06:51;100850.97;;;6.56;96.23
69772;BME280;57046;45.988;18.664;2023-04-08T02:09:17;100851.22;;;6.54;95.84
69772;BME280;57046;45.988;18.664;2023-04-08T02:11:42;100846.66;;;6.55;96.28
69772;BME280;57046;45.988;18.664;2023-04-08T02:14:07;100846.94;;;6.53;96.55
69772;BME280;57046;45.988;18.664;2023-04-08T02:16:38;100859.63;;;6.48;96.82
69772;BME280;57046;45.988;18.664;2023-04-08T02:19:12;100837.19;;;6.34;97.44
69772;BME280;57046;45.988;18.664;2023-04-08T02:21:46;100852.94;;;6.45;97.51
69772;BME280;57046;45.988;18.664;2023-04-08T02:24:13;100849.69;;;6.48;97.34
69772;BME280;57046;45.988;18.664;2023-04-08T02:26:41;100835.78;;;6.41;97.73
69772;BME280;57046;45.988;18.664;2023-04-08T02:29:11;100846.19;;;6.48;97.70
69772;BME280;57046;45.988;18.664;2023-04-08T02:31:37;100845.13;;;6.49;97.59
69772;BME280;57046;45.988;18.664;2023-04-08T02:34:06;100850.19;;;6.50;97.93
69772;BME280;57046;45.988;18.664;2023-04-08T02:36:33;100848.63;;;6.49;97.78
69772;BME280;57046;45.988;18.664;2023-04-08T02:38:58;100846.44;;;6.51;97.68
69772;BME280;57046;45.988;18.664;2023-04-08T02:41:27;100840.25;;;6.51;97.50
69772;BME280;57046;45.988;18.664;2023-04-08T02:43:53;100842.69;;;6.52;97.95
69772;BME280;57046;45.988;18.664;2023-04-08T02:46:18;100839.75;;;6.49;97.92
69772;BME280;57046;45.988;18.664;2023-04-08T02:48:43;100820.25;;;6.38;98.10
69772;BME280;57046;45.988;18.664;2023-04-08T02:51:09;100838.28;;;6.61;97.45
69772;BME280;57046;45.988;18.664;2023-04-08T02:53:34;100832.78;;;6.48;97.48
69772;BME280;57046;45.988;18.664;2023-04-08T02:55:59;100809.31;;;6.30;97.12
69772;BME280;57046;45.988;18.664;2023-04-08T02:58:24;100837.06;;;6.49;97.83
69772;BME280;57046;45.988;18.664;2023-04-08T03:00:50;100833.59;;;6.48;97.34
69772;BME280;57046;45.988;18.664;2023-04-08T03:03:15;100831.97;;;6.47;97.65
69772;BME280;57046;45.988;18.664;2023-04-08T03:05:40;100835.19;;;6.49;98.01
69772;BME280;57046;45.988;18.664;2023-04-08T03:08:06;100835.69;;;6.51;97.96
69772;BME280;57046;45.988;18.664;2023-04-08T03:10:31;100834.38;;;6.49;98.27
69772;BME280;57046;45.988;18.664;2023-04-08T03:12:57;100835.19;;;6.49;98.25
69772;BME280;57046;45.988;18.664;2023-04-08T03:15:22;100832.06;;;6.37;98.37
69772;BME280;57046;45.988;18.664;2023-04-08T03:17:47;100839.75;;;6.49;97.93
69772;BME280;57046;45.988;18.664;2023-04-08T03:20:13;100841.34;;;6.50;97.41
69772;BME280;57046;45.988;18.664;2023-04-08T03:22:38;100839.44;;;6.50;97.93
69772;BME280;57046;45.988;18.664;2023-04-08T03:25:03;100833.00;;;6.51;98.05
69772;BME280;57046;45.988;18.664;2023-04-08T03:27:29;100842.13;;;6.50;97.93
69772;BME280;57046;45.988;18.664;2023-04-08T03:29:54;100842.13;;;6.50;98.23
69772;BME280;57046;45.988;18.664;2023-04-08T03:32:20;100844.56;;;6.52;97.81
69772;BME280;57046;45.988;18.664;2023-04-08T03:34:45;100840.25;;;6.51;98.32
69772;BME280;57046;45.988;18.664;2023-04-08T03:37:10;100851.00;;;6.51;98.41
69772;BME280;57046;45.988;18.664;2023-04-08T03:39:37;100850.25;;;6.45;98.63
69772;BME280;57046;45.988;18.664;2023-04-08T03:42:02;100846.53;;;6.41;98.46
69772;BME280;57046;45.988;18.664;2023-04-08T03:44:28;100839.56;;;6.40;98.97
69772;BME280;57046;45.988;18.664;2023-04-08T03:46:53;100847.34;;;6.42;98.76
69772;BME280;57046;45.988;18.664;2023-04-08T03:49:18;100856.94;;;6.48;98.01
69772;BME280;57046;45.988;18.664;2023-04-08T03:51:44;100856.44;;;6.46;98.01
69772;BME280;57046;45.988;18.664;2023-04-08T03:54:09;100858.00;;;6.47;98.08
69772;BME280;57046;45.988;18.664;2023-04-08T03:56:35;100861.50;;;6.47;98.57
69772;BME280;57046;45.988;18.664;2023-04-08T03:59:00;100850.59;;;6.39;98.30
69772;BME280;57046;45.988;18.664;2023-04-08T04:01:25;100869.84;;;6.46;99.01
69772;BME280;57046;45.988;18.664;2023-04-08T04:03:51;100860.22;;;6.40;98.95
69772;BME280;57046;45.988;18.664;2023-04-08T04:06:16;100871.72;;;6.45;99.28
69772;BME280;57046;45.988;18.664;2023-04-08T04:08:41;100874.03;;;6.57;98.54
69772;BME280;57046;45.988;18.664;2023-04-08T04:11:06;100876.09;;;6.65;98.46
69772;BME280;57046;45.988;18.664;2023-04-08T04:13:32;100872.63;;;6.64;98.10
69772;BME280;57046;45.988;18.664;2023-04-08T04:15:57;100883.91;;;6.67;97.54
69772;BME280;57046;45.988;18.664;2023-04-08T04:18:22;100881.47;;;6.65;97.92
69772;BME280;57046;45.988;18.664;2023-04-08T04:20:48;100890.13;;;6.57;98.29
69772;BME280;57046;45.988;18.664;2023-04-08T04:23:13;100893.94;;;6.51;99.12
69772;BME280;57046;45.988;18.664;2023-04-08T04:25:41;100890.44;;;6.55;98.59
69772;BME280;57046;45.988;18.664;2023-04-08T04:28:07;100892.56;;;6.58;98.43
69772;BME280;57046;45.988;18.664;2023-04-08T04:30:32;100890.66;;;6.59;98.16
69772;BME280;57046;45.988;18.664;2023-04-08T04:32:57;100887.69;;;6.60;97.93
69772;BME280;57046;45.988;18.664;2023-04-08T04:35:23;100890.13;;;6.57;97.93
69772;BME280;57046;45.988;18.664;2023-04-08T04:37:48;100907.81;;;6.63;97.58
69772;BME280;57046;45.988;18.664;2023-04-08T04:40:13;100904.09;;;6.59;98.31
69772;BME280;57046;45.988;18.664;2023-04-08T04:42:39;100901.97;;;6.56;98.69
69772;BME280;57046;45.988;18.664;2023-04-08T04:45:05;100910.53;;;6.58;98.64
69772;BME280;57046;45.988;18.664;2023-04-08T04:47:30;100908.09;;;6.61;99.35
69772;BME280;57046;45.988;18.664;2023-04-08T04:49:55;100891.81;;;6.53;98.99
69772;BME280;57046;45.988;18.664;2023-04-08T04:52:21;100906.22;;;6.62;99.25
69772;BME280;57046;45.988;18.664;2023-04-08T04:54:46;100900.59;;;6.58;99.72
69772;BME280;57046;45.988;18.664;2023-04-08T04:57:11;100902.34;;;6.73;100.00
69772;BME280;57046;45.988;18.664;2023-04-08T04:59:37;100905.53;;;6.75;100.00
69772;BME280;57046;45.988;18.664;2023-04-08T05:02:02;100906.16;;;6.67;100.00
69772;BME280;57046;45.988;18.664;2023-04-08T05:04:27;100903.22;;;6.63;100.00
69772;BME280;57046;45.988;18.664;2023-04-08T05:06:53;100915.03;;;7.44;100.00
69772;BME280;57046;45.988;18.664;2023-04-08T05:09:18;100909.13;;;7.18;100.00
69772;BME280;57046;45.988;18.664;2023-04-08T05:11:43;100908.09;;;6.90;100.00
69772;BME280;57046;45.988;18.664;2023-04-08T05:14:09;100911.56;;;6.91;100.00
69772;BME280;57046;45.988;18.664;2023-04-08T05:16:34;100913.16;;;6.92;100.00
69772;BME280;57046;45.988;18.664;2023-04-08T05:18:59;100921.00;;;6.88;100.00
69772;BME280;57046;45.988;18.664;2023-04-08T05:21:25;100920.75;;;6.85;100.00
69772;BME280;57046;45.988;18.664;2023-04-08T05:23:50;100924.56;;;6.84;100.00
69772;BME280;57046;45.988;18.664;2023-04-08T05:26:15;100933.44;;;6.79;100.00
69772;BME280;57046;45.988;18.664;2023-04-08T05:28:41;100924.84;;;6.77;100.00
69772;BME280;57046;45.988;18.664;2023-04-08T05:31:06;100926.19;;;6.80;100.00
69772;BME280;57046;45.988;18.664;2023-04-08T05:33:31;100931.00;;;6.83;100.00
69772;BME280;57046;45.988;18.664;2023-04-08T05:35:57;100927.78;;;6.81;100.00
69772;BME280;57046;45.988;18.664;2023-04-08T05:38:22;100938.25;;;6.82;100.00
69772;BME280;57046;45.988;18.664;2023-04-08T05:40:47;100929.34;;;6.87;100.00
69772;BME280;57046;45.988;18.664;2023-04-08T05:43:13;100942.72;;;6.92;100.00
69772;BME280;57046;45.988;18.664;2023-04-08T05:45:38;100939.75;;;6.93;99.65
69772;BME280;57046;45.988;18.664;2023-04-08T05:48:03;100937.34;;;6.92;99.85
69772;BME280;57046;45.988;18.664;2023-04-08T05:50:29;100933.34;;;6.89;100.00
69772;BME280;57046;45.988;18.664;2023-04-08T05:52:54;100940.09;;;6.87;99.64
69772;BME280;57046;45.988;18.664;2023-04-08T05:55:19;100936.41;;;6.78;100.00
69772;BME280;57046;45.988;18.664;2023-04-08T05:57:45;100949.25;;;6.81;100.00
69772;BME280;57046;45.988;18.664;2023-04-08T06:00:10;100955.75;;;6.80;100.00
69772;BME280;57046;45.988;18.664;2023-04-08T06:02:36;100943.06;;;6.85;100.00
69772;BME280;57046;45.988;18.664;2023-04-08T06:05:02;100934.16;;;6.90;100.00
69772;BME280;57046;45.988;18.664;2023-04-08T06:07:27;100944.09;;;6.89;100.00
69772;BME280;57046;45.988;18.664;2023-04-08T06:09:53;100952.16;;;6.89;99.96
69772;BME280;57046;45.988;18.664;2023-04-08T06:12:18;100954.50;;;6.96;99.45
69772;BME280;57046;45.988;18.664;2023-04-08T06:14:44;100949.63;;;6.98;99.02
69772;BME280;57046;45.988;18.664;2023-04-08T06:17:09;100952.41;;;6.88;99.91
69772;BME280;57046;45.988;18.664;2023-04-08T06:19:34;100951.06;;;6.90;99.39
69772;BME280;57046;45.988;18.664;2023-04-08T06:22:00;100956.16;;;6.92;99.32
69772;BME280;57046;45.988;18.664;2023-04-08T06:24:26;100961.81;;;6.90;100.00
69772;BME280;57046;45.988;18.664;2023-04-08T06:26:51;100957.00;;;6.87;99.56
69772;BME280;57046;45.988;18.664;2023-04-08T06:29:17;100961.75;;;6.95;99.01
69772;BME280;57046;45.988;18.664;2023-04-08T06:31:42;100962.56;;;6.96;99.67
69772;BME280;57046;45.988;18.664;2023-04-08T06:34:08;100963.16;;;6.88;100.00
69772;BME280;57046;45.988;18.664;2023-04-08T06:36:33;100965.00;;;6.92;100.00
69772;BME280;57046;45.988;18.664;2023-04-08T06:38:58;100970.28;;;7.02;100.00
69772;BME280;57046;45.988;18.664;2023-04-08T06:41:24;100974.06;;;7.01;100.00
69772;BME280;57046;45.988;18.664;2023-04-08T06:43:49;100947.25;;;6.96;98.84
69772;BME280;57046;45.988;18.664;2023-04-08T06:46:14;100973.72;;;7.08;99.50
69772;BME280;57046;45.988;18.664;2023-04-08T06:48:40;100974.72;;;7.17;99.71
69772;BME280;57046;45.988;18.664;2023-04-08T06:51:05;100983.25;;;7.24;100.00
69772;BME280;57046;45.988;18.664;2023-04-08T06:53:30;100983.75;;;7.26;98.98
69772;BME280;57046;45.988;18.664;2023-04-08T06:55:56;100986.41;;;7.31;98.58
69772;BME280;57046;45.988;18.664;2023-04-08T06:58:21;100986.91;;;7.33;98.09
69772;BME280;57046;45.988;18.664;2023-04-08T07:00:46;100987.66;;;7.39;98.59
69772;BME280;57046;45.988;18.664;2023-04-08T07:03:12;100979.66;;;7.34;97.83
69772;BME280;57046;45.988;18.664;2023-04-08T07:05:37;100991.09;;;7.44;97.02
69772;BME280;57046;45.988;18.664;2023-04-08T07:08:04;100987.84;;;7.47;97.36
69772;BME280;57046;45.988;18.664;2023-04-08T07:10:29;100999.34;;;7.53;97.60
69772;BME280;57046;45.988;18.664;2023-04-08T07:12:55;100996.06;;;7.56;97.39
69772;BME280;57046;45.988;18.664;2023-04-08T07:15:20;100998.72;;;7.61;97.38
69772;BME280;57046;45.988;18.664;2023-04-08T07:17:45;100999.22;;;7.63;96.94
69772;BME280;57046;45.988;18.664;2023-04-08T07:20:11;100993.22;;;7.71;96.49
69772;BME280;57046;45.988;18.664;2023-04-08T07:22:36;101000.25;;;7.67;95.58
69772;BME280;57046;45.988;18.664;2023-04-08T07:25:02;100995.59;;;7.73;95.68
69772;BME280;57046;45.988;18.664;2023-04-08T07:27:27;100997.91;;;7.84;96.14
69772;BME280;57046;45.988;18.664;2023-04-08T07:29:53;101002.19;;;7.85;96.27
69772;BME280;57046;45.988;18.664;2023-04-08T07:32:18;101002.44;;;7.89;96.87
69772;BME280;57046;45.988;18.664;2023-04-08T07:34:44;101012.06;;;7.90;94.53
69772;BME280;57046;45.988;18.664;2023-04-08T07:37:09;101016.28;;;7.77;92.89
69772;BME280;57046;45.988;18.664;2023-04-08T07:39:34;101015.78;;;7.75;93.30
69772;BME280;57046;45.988;18.664;2023-04-08T07:41:59;101027.97;;;7.67;93.60
69772;BME280;57046;45.988;18.664;2023-04-08T07:44:25;101016.00;;;7.55;93.62
69772;BME280;57046;45.988;18.664;2023-04-08T07:46:50;101011.59;;;7.64;95.11
69772;BME280;57046;45.988;18.664;2023-04-08T07:49:16;101028.41;;;7.75;95.67
69772;BME280;57046;45.988;18.664;2023-04-08T07:51:41;101022.97;;;7.80;94.46
69772;BME280;57046;45.988;18.664;2023-04-08T07:54:06;101018.84;;;7.87;95.60
69772;BME280;57046;45.988;18.664;2023-04-08T07:56:32;101024.44;;;7.91;95.99
69772;BME280;57046;45.988;18.664;2023-04-08T07:58:57;101030.06;;;7.94;94.41
69772;BME280;57046;45.988;18.664;2023-04-08T08:01:23;101029.44;;;8.02;92.88
69772;BME280;57046;45.988;18.664;2023-04-08T08:03:49;101027.94;;;7.91;92.95
69772;BME280;57046;45.988;18.664;2023-04-08T08:06:15;101031.13;;;7.93;92.18
69772;BME280;57046;45.988;18.664;2023-04-08T08:08:40;101029.72;;;8.01;90.97
69772;BME280;57046;45.988;18.664;2023-04-08T08:11:06;101032.03;;;8.07;92.34
69772;BME280;57046;45.988;18.664;2023-04-08T08:13:32;101001.84;;;7.92;91.26
69772;BME280;57046;45.988;18.664;2023-04-08T08:15:57;101036.69;;;8.63;100.00
69772;BME280;57046;45.988;18.664;2023-04-08T08:18:23;101037.78;;;8.43;97.87
69772;BME280;57046;45.988;18.664;2023-04-08T08:20:48;101037.94;;;8.33;93.87
69772;BME280;57046;45.988;18.664;2023-04-08T08:23:13;101045.31;;;8.23;91.26
69772;BME280;57046;45.988;18.664;2023-04-08T08:25:39;101039.75;;;8.14;91.08
69772;BME280;57046;45.988;18.664;2023-04-08T08:28:04;101038.91;;;8.18;91.58
69772;BME280;57046;45.988;18.664;2023-04-08T08:30:29;101046.97;;;8.18;90.65
69772;BME280;57046;45.988;18.664;2023-04-08T08:32:55;101041.81;;;8.22;91.06
69772;BME280;57046;45.988;18.664;2023-04-08T08:35:20;101036.13;;;8.24;91.09
69772;BME280;57046;45.988;18.664;2023-04-08T08:37:45;101044.09;;;8.34;90.48
69772;BME280;57046;45.988;18.664;2023-04-08T08:40:12;101040.91;;;8.32;91.50
69772;BME280;57046;45.988;18.664;2023-04-08T08:42:38;101051.09;;;8.35;92.76
69772;BME280;57046;45.988;18.664;2023-04-08T08:45:04;101041.84;;;8.41;92.80
69772;BME280;57046;45.988;18.664;2023-04-08T08:47:29;101041.84;;;8.41;91.72
69772;BME280;57046;45.988;18.664;2023-04-08T08:49:55;101049.94;;;8.41;91.86
69772;BME280;57046;45.988;18.664;2023-04-08T08:52:20;101033.09;;;8.30;91.86
69772;BME280;57046;45.988;18.664;2023-04-08T08:54:46;101048.84;;;8.42;92.56
69772;BME280;57046;45.988;18.664;2023-04-08T08:57:18;101049.19;;;8.54;91.59
69772;BME280;57046;45.988;18.664;2023-04-08T08:59:47;101057.72;;;8.61;90.42
69772;BME280;57046;45.988;18.664;2023-04-08T09:04:57;101055.69;;;8.72;97.40
69772;BME280;57046;45.988;18.664;2023-04-08T09:07:23;101050.00;;;8.73;88.78
69772;BME280;57046;45.988;18.664;2023-04-08T09:09:50;101053.41;;;8.79;89.54
69772;BME280;57046;45.988;18.664;2023-04-08T09:12:15;101057.84;;;8.88;89.59
69772;BME280;57046;45.988;18.664;2023-04-08T09:14:41;101059.56;;;8.84;89.13
69772;BME280;57046;45.988;18.664;2023-04-08T09:17:07;101051.59;;;8.93;90.51
69772;BME280;57046;45.988;18.664;2023-04-08T09:19:32;101060.38;;;8.98;89.76
69772;BME280;57046;45.988;18.664;2023-04-08T09:22:09;101071.31;;;9.07;89.30
69772;BME280;57046;45.988;18.664;2023-04-08T09:24:35;101063.94;;;9.12;87.60
69772;BME280;57046;45.988;18.664;2023-04-08T09:27:00;101057.88;;;9.20;86.89
69772;BME280;57046;45.988;18.664;2023-04-08T09:29:26;101068.28;;;9.27;86.39
69772;BME280;57046;45.988;18.664;2023-04-08T09:31:55;101060.81;;;9.38;85.81
69772;BME280;57046;45.988;18.664;2023-04-08T09:34:21;101062.25;;;9.49;85.86
69772;BME280;57046;45.988;18.664;2023-04-08T09:36:46;101067.13;;;9.60;84.20
69772;BME280;57046;45.988;18.664;2023-04-08T09:39:11;101069.34;;;9.72;83.75
69772;BME280;57046;45.988;18.664;2023-04-08T09:41:38;101081.06;;;9.81;83.83
69772;BME280;57046;45.988;18.664;2023-04-08T09:44:07;101073.97;;;9.85;81.93
69772;BME280;57046;45.988;18.664;2023-04-08T09:49:28;101064.66;;;9.91;83.27
69772;BME280;57046;45.988;18.664;2023-04-08T09:57:45;101062.06;;;9.86;82.34
69772;BME280;57046;45.988;18.664;2023-04-08T10:00:16;101084.25;;;9.97;81.27
69772;BME280;57046;45.988;18.664;2023-04-08T10:03:01;101051.97;;;9.78;79.40
69772;BME280;57046;45.988;18.664;2023-04-08T10:05:30;101046.38;;;9.88;83.88
69772;BME280;57046;45.988;18.664;2023-04-08T10:07:55;101074.16;;;10.43;84.26
69772;BME280;57046;45.988;18.664;2023-04-08T10:10:21;101079.78;;;10.33;84.07
69772;BME280;57046;45.988;18.664;2023-04-08T10:12:47;101068.19;;;10.19;82.63
69772;BME280;57046;45.988;18.664;2023-04-08T10:17:52;101078.47;;;10.31;82.87
69772;BME280;57046;45.988;18.664;2023-04-08T10:22:59;101076.25;;;10.33;81.36
69772;BME280;57046;45.988;18.664;2023-04-08T10:25:31;101080.75;;;10.51;82.80
69772;BME280;57046;45.988;18.664;2023-04-08T10:27:59;101061.09;;;10.59;83.63
69772;BME280;57046;45.988;18.664;2023-04-08T10:32:57;101082.03;;;10.53;79.57
69772;BME280;57046;45.988;18.664;2023-04-08T10:35:34;101072.25;;;10.44;78.25
69772;BME280;57046;45.988;18.664;2023-04-08T10:38:00;101078.81;;;10.51;78.01
69772;BME280;57046;45.988;18.664;2023-04-08T10:40:26;101065.63;;;10.50;78.11
69772;BME280;57046;45.988;18.664;2023-04-08T10:42:58;101071.13;;;10.45;76.34
69772;BME280;57046;45.988;18.664;2023-04-08T10:45:23;101071.25;;;10.40;77.24
69772;BME280;57046;45.988;18.664;2023-04-08T10:47:49;101070.81;;;10.60;83.62
69772;BME280;57046;45.988;18.664;2023-04-08T10:50:16;101073.34;;;10.43;79.10
69772;BME280;57046;45.988;18.664;2023-04-08T10:55:13;101066.22;;;10.47;79.19
69772;BME280;57046;45.988;18.664;2023-04-08T10:57:38;101076.91;;;10.52;76.48
69772;BME280;57046;45.988;18.664;2023-04-08T11:00:04;101076.22;;;10.60;77.46
69772;BME280;57046;45.988;18.664;2023-04-08T11:02:32;101070.69;;;10.65;75.02
69772;BME280;57046;45.988;18.664;2023-04-08T11:04:58;101067.63;;;10.58;75.57
69772;BME280;57046;45.988;18.664;2023-04-08T11:07:24;101068.91;;;10.60;76.84
69772;BME280;57046;45.988;18.664;2023-04-08T11:09:50;101079.53;;;10.57;75.95
69772;BME280;57046;45.988;18.664;2023-04-08T11:12:15;101070.28;;;10.71;78.59
69772;BME280;57046;45.988;18.664;2023-04-08T11:14:41;101061.09;;;10.59;78.01
69772;BME280;57046;45.988;18.664;2023-04-08T11:17:07;101063.06;;;10.67;77.84
69772;BME280;57046;45.988;18.664;2023-04-08T11:19:34;101073.38;;;10.65;77.30
69772;BME280;57046;45.988;18.664;2023-04-08T11:22:01;101069.44;;;10.85;78.12
69772;BME280;57046;45.988;18.664;2023-04-08T11:24:26;101072.00;;;10.90;78.16
69772;BME280;57046;45.988;18.664;2023-04-08T11:26:53;101060.44;;;10.76;75.45
69772;BME280;57046;45.988;18.664;2023-04-08T11:29:19;101065.59;;;10.86;78.43
69772;BME280;57046;45.988;18.664;2023-04-08T11:31:45;101065.97;;;10.93;77.89
69772;BME280;57046;45.988;18.664;2023-04-08T11:34:10;101073.72;;;10.86;76.15
69772;BME280;57046;45.988;18.664;2023-04-08T11:36:39;101037.94;;;10.66;74.83
69772;BME280;57046;45.988;18.664;2023-04-08T11:39:10;101066.91;;;10.88;75.14
69772;BME280;57046;45.988;18.664;2023-04-08T11:41:37;101065.78;;;10.89;76.06
69772;BME280;57046;45.988;18.664;2023-04-08T11:44:02;101067.22;;;10.87;74.63
69772;BME280;57046;45.988;18.664;2023-04-08T11:46:27;101063.50;;;10.83;74.93
69772;BME280;57046;45.988;18.664;2023-04-08T11:49:06;101042.53;;;11.02;77.61
69772;BME280;57046;45.988;18.664;2023-04-08T11:54:31;101056.28;;;11.45;78.27
69772;BME280;57046;45.988;18.664;2023-04-08T11:56:57;101066.94;;;11.41;79.36
69772;BME280;57046;45.988;18.664;2023-04-08T11:59:25;101048.66;;;11.47;81.11
69772;BME280;57046;45.988;18.664;2023-04-08T12:01:51;101064.78;;;11.60;81.58
69772;BME280;57046;45.988;18.664;2023-04-08T12:04:16;101055.72;;;11.56;85.23
69772;BME280;57046;45.988;18.664;2023-04-08T12:06:42;101056.38;;;11.62;80.06
69772;BME280;57046;45.988;18.664;2023-04-08T12:09:07;101059.13;;;11.70;82.28
69772;BME280;57046;45.988;18.664;2023-04-08T12:11:32;101052.78;;;11.75;83.42
69772;BME280;57046;45.988;18.664;2023-04-08T12:13:58;101053.75;;;11.48;80.05
69772;BME280;57046;45.988;18.664;2023-04-08T12:16:23;101050.56;;;11.77;100.00
69772;BME280;57046;45.988;18.664;2023-04-08T12:18:48;101056.03;;;11.55;79.39
69772;BME280;57046;45.988;18.664;2023-04-08T12:21:14;101057.63;;;11.56;77.56
69772;BME280;57046;45.988;18.664;2023-04-08T12:23:39;101049.00;;;11.54;79.41
69772;BME280;57046;45.988;18.664;2023-04-08T12:26:04;101035.38;;;11.37;79.13
69772;BME280;57046;45.988;18.664;2023-04-08T12:28:30;101056.25;;;11.36;79.60
69772;BME280;57046;45.988;18.664;2023-04-08T12:30:55;101041.31;;;11.16;81.46
69772;BME280;57046;45.988;18.664;2023-04-08T12:33:20;101052.69;;;11.27;80.39
69772;BME280;57046;45.988;18.664;2023-04-08T12:35:46;101047.34;;;11.36;80.86
69772;BME280;57046;45.988;18.664;2023-04-08T12:38:11;101049.97;;;11.27;79.16
69772;BME280;57046;45.988;18.664;2023-04-08T12:40:36;101055.72;;;11.26;79.70
69772;BME280;57046;45.988;18.664;2023-04-08T12:43:02;101062.84;;;11.21;77.01
69772;BME280;57046;45.988;18.664;2023-04-08T12:45:27;101059.16;;;11.17;76.46
69772;BME280;57046;45.988;18.664;2023-04-08T12:47:52;101054.47;;;11.32;78.93
69772;BME280;57046;45.988;18.664;2023-04-08T12:50:18;101058.63;;;11.38;75.66
69772;BME280;57046;45.988;18.664;2023-04-08T12:52:43;101060.94;;;11.22;76.31
69772;BME280;57046;45.988;18.664;2023-04-08T12:55:09;101055.28;;;11.32;77.36
69772;BME280;57046;45.988;18.664;2023-04-08T12:57:34;101051.31;;;11.38;76.82
69772;BME280;57046;45.988;18.664;2023-04-08T12:59:59;101061.97;;;11.35;75.10
69772;BME280;57046;45.988;18.664;2023-04-08T13:02:25;101055.38;;;11.27;75.33
69772;BME280;57046;45.988;18.664;2023-04-08T13:04:50;101057.22;;;11.40;74.02
69772;BME280;57046;45.988;18.664;2023-04-08T13:07:15;101058.91;;;11.28;75.91
69772;BME280;57046;45.988;18.664;2023-04-08T13:09:41;101054.41;;;11.23;76.22
69772;BME280;57046;45.988;18.664;2023-04-08T13:12:06;101052.03;;;11.21;75.27